createdAt,value
2022-11-05T00:02:57.946Z,82.35
2022-11-05T00:08:21.817Z,82.39
2022-11-05T00:13:50.794Z,82.23
2022-11-05T00:19:08.056Z,82.22
2022-11-05T00:24:28.689Z,82.16
2022-11-05T00:29:30.635Z,82.05
2022-11-05T00:34:32.728Z,81.96
2022-11-05T00:39:34.625Z,81.78
2022-11-05T00:44:55.296Z,81.64
2022-11-05T00:49:57.110Z,81.53
2022-11-05T00:54:59.025Z,81.35
2022-11-05T01:00:00.878Z,81.36
2022-11-05T01:05:03.053Z,81.43
2022-11-05T01:10:05.663Z,81.29
2022-11-05T01:15:08.139Z,81.19
2022-11-05T01:20:11.106Z,81.29
2022-11-05T01:25:13.018Z,81.37
2022-11-05T01:30:15.212Z,81.29
2022-11-05T01:35:18.311Z,81.02
2022-11-05T01:40:22.079Z,80.87
2022-11-05T01:45:28.480Z,80.83
2022-11-05T01:50:49.216Z,80.87
2022-11-05T01:55:57.713Z,81.08
2022-11-05T02:00:59.531Z,81.15
2022-11-05T02:06:03.947Z,81.23
2022-11-05T02:11:05.839Z,81.55
2022-11-05T02:16:43.781Z,81.71
2022-11-05T02:22:15.747Z,81.68
2022-11-05T02:27:36.385Z,81.43
2022-11-05T02:33:35.571Z,81.39
2022-11-05T02:39:07.397Z,81.37
2022-11-05T02:44:45.210Z,81.24
2022-11-05T02:50:04.492Z,80.98
2022-11-05T02:55:25.310Z,80.84
2022-11-05T03:00:43.312Z,80.92
2022-11-05T03:05:59.078Z,81.32
2022-11-05T03:11:13.344Z,81.76
2022-11-05T03:16:40.506Z,82.04
2022-11-05T03:21:49.944Z,82.63
2022-11-05T03:27:02.598Z,83.03
2022-11-05T03:32:07.029Z,83.41
2022-11-05T03:37:10.971Z,83.75
2022-11-05T03:42:17.111Z,83.98
2022-11-05T03:47:26.486Z,84.29
2022-11-05T03:52:33.506Z,84.62
2022-11-05T03:57:39.438Z,85.12
2022-11-05T04:02:41.942Z,85.81
2022-11-05T04:08:03.795Z,86.71
2022-11-05T04:13:24.224Z,87.32
2022-11-05T04:18:26.184Z,87.89
2022-11-05T05:27:47.390Z,91.16
2022-11-05T05:32:49.577Z,90.93
2022-11-05T05:37:55.682Z,90.47
2022-11-05T05:42:57.573Z,90.02
2022-11-05T05:47:59.342Z,89.52
2022-11-05T05:53:01.300Z,89.15
2022-11-05T05:58:03.209Z,88.91
2022-11-05T06:03:06.784Z,88.67
2022-11-05T06:08:08.711Z,88.43
2022-11-05T06:13:11.072Z,88.24
2022-11-05T06:18:13.252Z,88.16
2022-11-05T06:23:15.158Z,88.12
2022-11-05T06:28:16.919Z,88.08
2022-11-05T06:33:18.808Z,88.05
2022-11-05T06:38:20.987Z,88.00
2022-11-05T06:43:22.867Z,87.94
2022-11-05T06:48:25.671Z,87.93
2022-11-05T06:53:27.852Z,87.97
2022-11-05T06:58:31.162Z,87.93
2022-11-05T07:03:32.979Z,87.93
2022-11-05T07:08:36.220Z,87.94
2022-11-05T07:13:38.263Z,87.93
2022-11-05T07:18:40.104Z,87.94
2022-11-05T07:23:41.989Z,87.96
2022-11-05T07:28:43.750Z,87.94
2022-11-05T07:33:45.635Z,87.90
2022-11-05T07:38:47.407Z,87.87
2022-11-05T07:43:49.289Z,87.93
2022-11-05T07:48:51.061Z,87.95
2022-11-05T07:53:52.833Z,87.98
2022-11-05T07:58:54.715Z,88.02
2022-11-05T08:03:56.593Z,88.03
2022-11-05T08:08:58.331Z,88.04
2022-11-05T08:14:00.084Z,88.05
2022-11-05T08:19:01.914Z,88.06
2022-11-05T08:24:03.858Z,88.19
2022-11-05T08:42:58.245Z,89.78
2022-11-05T08:48:05.020Z,89.30
2022-11-05T08:53:08.322Z,88.76
2022-11-05T08:58:15.517Z,88.66
2022-11-05T09:03:18.110Z,88.56
2022-11-05T09:08:19.976Z,88.53
2022-11-05T09:13:23.053Z,88.58
2022-11-05T09:18:25.166Z,88.63
2022-11-05T09:23:26.938Z,88.63
2022-11-05T09:28:28.916Z,88.64
2022-11-05T09:33:31.137Z,88.64
2022-11-05T09:38:35.052Z,88.65
2022-11-05T09:43:42.232Z,88.72
2022-11-05T09:48:49.235Z,88.74
2022-11-05T09:53:51.906Z,88.74
2022-11-05T09:59:02.417Z,88.79
2022-11-05T10:04:14.338Z,88.88
2022-11-05T10:09:40.356Z,89.03
2022-11-05T10:14:47.370Z,89.23
2022-11-05T10:20:02.707Z,89.42
2022-11-05T10:25:17.143Z,89.56
2022-11-05T10:30:20.232Z,89.67
2022-11-05T10:35:24.945Z,89.68
2022-11-05T10:40:54.985Z,89.65
2022-11-05T10:46:06.394Z,89.67
2022-11-05T10:51:08.876Z,89.86
2022-11-05T10:56:34.744Z,89.90
2022-11-05T11:01:36.915Z,90.10
2022-11-05T11:06:48.090Z,90.19
2022-11-05T11:11:57.019Z,89.99
2022-11-05T11:17:29.974Z,89.68
2022-11-05T11:22:31.852Z,89.39
2022-11-05T11:27:34.853Z,89.33
2022-11-05T11:32:39.393Z,89.08
2022-11-05T11:50:33.340Z,89.47
2022-11-05T11:55:35.219Z,88.41
2022-11-05T12:00:47.544Z,87.88
2022-11-05T12:06:06.329Z,87.70
2022-11-05T12:11:21.509Z,87.75
2022-11-05T12:16:34.647Z,87.90
2022-11-05T12:22:04.686Z,88.23
2022-11-05T12:27:39.125Z,88.38
2022-11-05T12:32:49.397Z,87.98
2022-11-05T12:38:16.264Z,87.36
2022-11-05T12:43:52.138Z,87.01
2022-11-05T12:49:01.762Z,86.76
2022-11-05T12:54:29.477Z,86.58
2022-11-05T12:59:43.642Z,86.01
2022-11-05T13:05:27.910Z,85.52
2022-11-05T13:10:50.983Z,84.90
2022-11-05T13:16:21.021Z,84.99
2022-11-05T13:21:26.329Z,85.08
2022-11-05T13:26:51.365Z,84.91
2022-11-05T13:32:12.025Z,84.15
2022-11-05T13:37:36.124Z,83.77
2022-11-05T13:43:11.341Z,83.34
2022-11-05T13:48:22.684Z,82.66
2022-11-05T13:54:02.351Z,82.65
2022-11-05T13:59:51.093Z,82.81
2022-11-05T14:05:01.707Z,82.59
2022-11-05T14:10:21.702Z,82.46
2022-11-05T14:15:29.134Z,82.35
2022-11-05T14:20:30.993Z,82.32
2022-11-05T14:25:36.041Z,82.07
2022-11-05T14:30:44.089Z,81.92
2022-11-05T14:35:46.035Z,81.83
2022-11-05T14:40:48.835Z,81.72
2022-11-05T14:46:08.431Z,81.04
2022-11-05T14:51:24.438Z,81.03
2022-11-05T14:56:26.422Z,81.12
2022-11-05T15:01:34.186Z,81.17
2022-11-05T15:06:37.030Z,81.39
2022-11-05T15:12:15.485Z,81.50
2022-11-05T15:17:33.322Z,81.63
2022-11-05T15:22:43.673Z,81.75
2022-11-05T15:28:05.389Z,81.84
2022-11-05T15:33:22.008Z,81.94
2022-11-05T15:38:27.007Z,81.97
2022-11-05T15:43:29.089Z,82.09
2022-11-05T15:48:31.844Z,82.29
2022-11-05T15:54:08.375Z,82.35
2022-11-05T15:59:29.716Z,82.40
2022-11-05T16:04:35.176Z,82.51
2022-11-05T16:09:40.738Z,82.65
2022-11-05T16:14:42.957Z,82.78
2022-11-05T16:19:46.214Z,82.87
2022-11-05T16:24:49.058Z,82.78
2022-11-05T16:29:56.349Z,82.60
2022-11-05T16:34:58.421Z,82.45
2022-11-05T16:40:00.600Z,82.34
2022-11-05T16:45:02.443Z,82.26
2022-11-05T16:50:21.047Z,82.32
2022-11-05T16:55:23.339Z,82.38
2022-11-05T17:00:26.442Z,82.42
2022-11-05T17:05:30.535Z,82.41
2022-11-05T17:10:32.384Z,82.35
2022-11-05T17:15:37.302Z,82.31
2022-11-05T17:20:43.847Z,82.30
2022-11-05T17:26:01.224Z,82.45
2022-11-05T17:31:05.219Z,82.68
2022-11-05T17:36:09.521Z,82.77
2022-11-05T17:41:22.227Z,82.94
2022-11-05T17:46:25.019Z,83.16
2022-11-05T17:51:26.896Z,83.42
2022-11-05T17:56:34.425Z,83.66
2022-11-05T18:01:43.357Z,83.74
2022-11-05T18:06:45.471Z,83.30
2022-11-05T18:11:47.309Z,82.97
2022-11-05T18:16:50.314Z,82.76
2022-11-05T18:21:52.185Z,82.24
2022-11-05T18:26:54.169Z,81.74
2022-11-05T18:31:56.024Z,81.59
2022-11-05T18:36:57.919Z,81.57
2022-11-05T18:41:59.798Z,81.43
2022-11-05T18:47:01.781Z,81.29
2022-11-05T18:52:04.678Z,81.08
2022-11-05T18:57:06.560Z,81.31
2022-11-05T19:02:10.702Z,81.90
2022-11-05T19:07:12.673Z,82.47
2022-11-05T19:12:14.542Z,83.09
2022-11-05T19:17:16.422Z,83.61
2022-11-05T19:22:18.298Z,83.95
2022-11-05T19:27:20.193Z,84.08
2022-11-05T19:32:22.108Z,84.25
2022-11-05T19:37:23.923Z,84.45
2022-11-05T19:42:27.038Z,84.62
2022-11-05T19:47:28.915Z,84.74
2022-11-05T19:52:30.722Z,84.81
2022-11-05T19:57:36.767Z,84.87
2022-11-05T20:02:38.621Z,84.91
2022-11-05T20:07:41.122Z,84.94
2022-11-05T20:12:42.855Z,84.94
2022-11-05T20:17:51.477Z,84.85
2022-11-05T20:22:53.341Z,84.77
2022-11-05T20:27:56.719Z,84.67
2022-11-05T20:32:58.612Z,84.58
2022-11-05T20:38:00.485Z,84.56
2022-11-05T20:43:02.364Z,84.65
2022-11-05T20:48:04.378Z,84.76
2022-11-05T20:53:06.329Z,84.82
2022-11-05T20:58:08.207Z,84.89
2022-11-05T21:03:09.937Z,84.91
2022-11-05T21:08:12.011Z,84.94
2022-11-05T21:13:15.309Z,84.93
2022-11-05T21:18:18.377Z,84.86
2022-11-05T21:23:20.355Z,84.83
2022-11-05T21:28:22.323Z,84.77
2022-11-05T21:33:24.214Z,84.81
2022-11-05T21:38:26.098Z,84.76
2022-11-05T21:43:28.103Z,84.79
2022-11-05T21:48:31.183Z,84.91
2022-11-05T21:53:51.693Z,84.96
2022-11-05T21:59:12.396Z,85.13
2022-11-05T22:04:14.281Z,85.37
2022-11-05T22:09:20.158Z,85.61
2022-11-05T22:14:25.103Z,85.79
2022-11-05T22:19:27.290Z,85.90
2022-11-05T22:24:30.743Z,85.97
2022-11-05T22:29:32.922Z,85.97
2022-11-05T22:34:34.750Z,85.96
2022-11-05T22:39:37.256Z,85.86
2022-11-05T22:44:39.131Z,85.79
2022-11-05T22:49:40.931Z,85.62
2022-11-05T22:54:42.885Z,85.45
2022-11-05T22:59:44.762Z,85.20
2022-11-05T23:04:46.746Z,84.88
2022-11-05T23:10:07.462Z,84.65
2022-11-05T23:15:30.229Z,84.53
2022-11-05T23:20:51.258Z,84.33
2022-11-05T23:25:57.854Z,84.21
2022-11-05T23:31:18.565Z,83.69
2022-11-05T23:36:46.549Z,83.74
2022-11-05T23:42:23.496Z,83.84
2022-11-05T23:47:45.807Z,84.01
2022-11-05T23:52:47.683Z,84.12
2022-11-05T23:57:50.378Z,84.26
